Time;durP1;ratioP1;P1;durP2;ratioP2;P2;SDS_P1;SDS_P2;PMS_P1;PMS_P2;Temp;Humidity;BMP_temperature;BMP_pressure;BME280_temperature;BME280_humidity;BME280_pressure;Samples;Min_cycle;Max_cycle;Signal;HPM_P1;HPM_P2
2021/06/07 00:01:04;;;;;;;;;;;21.20;47.30;;;;;;500403;237;1142;-45
2021/06/07 00:03:05;;;;;;;;;;;21.30;47.20;;;;;;500906;237;1026;-44
2021/06/07 00:05:06;;;;;;;;;;;21.30;47.30;;;;;;500894;237;2200;-45
2021/06/07 00:07:08;;;;;;;;;;;21.30;47.20;;;;;;500674;237;1384;-45
2021/06/07 00:09:09;;;;;;;;;;;21.30;47.20;;;;;;500398;237;1085;-45
2021/06/07 00:11:11;;;;;;;;;;;21.40;47.20;;;;;;500717;237;1132;-44
2021/06/07 00:13:12;;;;;;;;;;;21.40;47.00;;;;;;500904;237;1049;-45
2021/06/07 00:15:13;;;;;;;;;;;21.40;47.00;;;;;;500677;237;1165;-45
2021/06/07 00:17:15;;;;;;;;;;;21.40;47.00;;;;;;500663;237;1043;-45
2021/06/07 00:19:16;;;;;;;;;;;21.40;47.00;;;;;;500867;237;1043;-44
2021/06/07 00:21:17;;;;;;;;;;;21.50;46.90;;;;;;500843;237;1002;-45
2021/06/07 00:23:18;;;;;;;;;;;21.50;46.80;;;;;;500932;237;1018;-44
2021/06/07 00:25:20;;;;;;;;;;;21.50;46.80;;;;;;500787;237;2125;-45
2021/06/07 00:27:21;;;;;;;;;;;21.50;46.80;;;;;;500892;237;1317;-44
2021/06/07 00:29:22;;;;;;;;;;;21.60;46.80;;;;;;500933;237;945;-45
2021/06/07 00:31:23;;;;;;;;;;;21.60;46.80;;;;;;500424;237;1165;-45
2021/06/07 00:33:25;;;;;;;;;;;21.60;46.70;;;;;;500448;237;1041;-45
2021/06/07 00:35:26;;;;;;;;;;;21.60;46.60;;;;;;500661;237;1013;-44
2021/06/07 00:37:27;;;;;;;;;;;21.60;46.60;;;;;;500825;237;1193;-45
2021/06/07 00:39:29;;;;;;;;;;;21.60;46.60;;;;;;500552;237;1113;-44
2021/06/07 00:41:30;;;;;;;;;;;21.70;46.60;;;;;;500599;237;1137;-45
2021/06/07 00:43:31;;;;;;;;;;;21.70;46.60;;;;;;500910;237;1063;-45
2021/06/07 00:45:32;;;;;;;;;;;21.70;46.50;;;;;;500616;237;2152;-45
2021/06/07 00:47:34;;;;;;;;;;;21.70;46.40;;;;;;500565;237;1336;-45
2021/06/07 00:49:35;;;;;;;;;;;21.70;46.40;;;;;;500760;237;1043;-45
2021/06/07 00:51:36;;;;;;;;;;;21.70;46.40;;;;;;500498;237;1141;-45
2021/06/07 00:53:38;;;;;;;;;;;21.70;46.40;;;;;;500412;237;1055;-45
2021/06/07 00:55:39;;;;;;;;;;;21.70;46.40;;;;;;500363;237;1132;-45
2021/06/07 00:57:40;;;;;;;;;;;21.80;46.50;;;;;;500362;237;1341;-44
2021/06/07 00:59:41;;;;;;;;;;;21.70;46.40;;;;;;500505;237;934;-44
2021/06/07 01:01:43;;;;;;;;;;;21.70;46.50;;;;;;500368;237;1282;-44
2021/06/07 01:03:44;;;;;;;;;;;21.30;47.50;;;;;;500577;237;955;-44
2021/06/07 01:05:45;;;;;;;;;;;20.70;48.80;;;;;;500861;237;2145;-44
2021/06/07 01:07:47;;;;;;;;;;;20.30;49.80;;;;;;500530;237;1069;-44
2021/06/07 01:09:48;;;;;;;;;;;20.10;50.70;;;;;;500903;237;1034;-44
2021/06/07 01:11:49;;;;;;;;;;;19.80;51.30;;;;;;500797;237;1540;-44
2021/06/07 01:13:50;;;;;;;;;;;19.70;51.70;;;;;;500798;237;1069;-44
2021/06/07 01:15:52;;;;;;;;;;;19.60;51.90;;;;;;500681;237;1187;-44
2021/06/07 01:17:53;;;;;;;;;;;19.50;52.20;;;;;;500454;237;1403;-44
2021/06/07 01:19:54;;;;;;;;;;;19.40;52.50;;;;;;500474;237;1030;-44
2021/06/07 01:21:56;;;;;;;;;;;19.30;52.70;;;;;;500580;237;1191;-44
2021/06/07 01:23:57;;;;;;;;;;;19.30;52.90;;;;;;500701;237;1125;-44
2021/06/07 01:26:00;;;;;;;;;;;19.20;53.00;;;;;;500788;237;2117;-44
2021/06/07 01:28:00;;;;;;;;;;;19.20;53.10;;;;;;500918;237;1411;-44
2021/06/07 01:30:01;;;;;;;;;;;19.10;53.20;;;;;;500830;237;1035;-44
2021/06/07 01:32:02;;;;;;;;;;;19.10;53.30;;;;;;500378;237;1257;-44
2021/06/07 01:34:04;;;;;;;;;;;19.10;53.40;;;;;;500945;237;1041;-44
2021/06/07 01:36:05;;;;;;;;;;;19.10;53.50;;;;;;500872;237;1457;-44
2021/06/07 01:38:06;;;;;;;;;;;19.00;53.50;;;;;;500932;237;1069;-44
2021/06/07 01:40:07;;;;;;;;;;;19.00;53.60;;;;;;500880;237;1041;-44
2021/06/07 01:42:09;;;;;;;;;;;19.00;53.70;;;;;;500754;237;1046;-44
2021/06/07 01:44:10;;;;;;;;;;;19.00;53.70;;;;;;500909;237;1062;-44
2021/06/07 01:46:11;;;;;;;;;;;19.00;53.70;;;;;;500358;237;2187;-44
2021/06/07 01:48:13;;;;;;;;;;;18.90;53.70;;;;;;500781;237;1209;-44
2021/06/07 01:50:14;;;;;;;;;;;18.90;53.80;;;;;;500790;237;1052;-44
2021/06/07 01:52:15;;;;;;;;;;;18.90;54.00;;;;;;500871;237;1005;-44
2021/06/07 01:54:16;;;;;;;;;;;18.80;54.10;;;;;;500755;237;1029;-44
2021/06/07 01:56:18;;;;;;;;;;;18.80;54.20;;;;;;500517;237;1212;-44
2021/06/07 01:58:19;;;;;;;;;;;18.80;54.20;;;;;;500459;237;1054;-44
2021/06/07 02:00:20;;;;;;;;;;;18.70;54.20;;;;;;500528;237;1068;-44
2021/06/07 02:02:21;;;;;;;;;;;18.70;54.20;;;;;;500373;237;1183;-44
2021/06/07 02:04:23;;;;;;;;;;;18.70;54.20;;;;;;500553;237;1080;-44
2021/06/07 02:06:24;;;;;;;;;;;18.70;54.20;;;;;;500719;237;2128;-44
2021/06/07 02:08:29;;;;;;;;;;;18.70;54.30;;;;;;500376;237;1180;-44
2021/06/07 02:10:27;;;;;;;;;;;18.70;54.30;;;;;;500530;237;1675;-44
2021/06/07 02:12:28;;;;;;;;;;;18.70;54.40;;;;;;500413;237;1290;-44
2021/06/07 02:14:29;;;;;;;;;;;18.70;54.40;;;;;;500740;237;1065;-44
2021/06/07 02:16:30;;;;;;;;;;;18.60;54.40;;;;;;500625;237;1198;-44
2021/06/07 02:18:32;;;;;;;;;;;18.60;54.40;;;;;;500876;237;1040;-44
2021/06/07 02:20:33;;;;;;;;;;;18.60;54.40;;;;;;500873;237;1079;-44
2021/06/07 02:22:34;;;;;;;;;;;18.60;54.40;;;;;;500704;237;1165;-44
2021/06/07 02:24:36;;;;;;;;;;;18.60;54.50;;;;;;500467;237;1023;-44
2021/06/07 02:26:37;;;;;;;;;;;18.60;54.50;;;;;;500385;237;2121;-44
2021/06/07 02:28:38;;;;;;;;;;;18.60;54.50;;;;;;500924;237;1067;-44
2021/06/07 02:30:40;;;;;;;;;;;18.60;54.50;;;;;;500839;237;1211;-44
2021/06/07 02:32:41;;;;;;;;;;;18.60;54.50;;;;;;500329;237;1156;-44
2021/06/07 02:34:42;;;;;;;;;;;18.50;54.60;;;;;;500380;237;1072;-44
2021/06/07 02:36:43;;;;;;;;;;;18.50;54.60;;;;;;500652;237;1137;-44
2021/06/07 02:38:45;;;;;;;;;;;18.50;54.60;;;;;;500832;237;1040;-44
2021/06/07 02:40:46;;;;;;;;;;;18.50;54.60;;;;;;500422;237;1342;-44
2021/06/07 02:42:47;;;;;;;;;;;18.50;54.60;;;;;;500905;237;1283;-44
2021/06/07 02:44:50;;;;;;;;;;;18.50;54.60;;;;;;500903;237;1056;-44
2021/06/07 02:46:51;;;;;;;;;;;18.40;54.70;;;;;;500715;237;2176;-44
2021/06/07 02:48:53;;;;;;;;;;;18.40;54.80;;;;;;500677;237;1062;-44
2021/06/07 02:50:54;;;;;;;;;;;18.40;54.80;;;;;;500445;237;1121;-44
2021/06/07 02:52:55;;;;;;;;;;;18.60;54.60;;;;;;500414;237;1225;-44
2021/06/07 02:54:56;;;;;;;;;;;19.00;53.40;;;;;;500865;237;1030;-44
2021/06/07 02:56:58;;;;;;;;;;;19.40;52.20;;;;;;500382;237;1368;-44
2021/06/07 02:58:59;;;;;;;;;;;19.70;51.40;;;;;;500572;237;1284;-44
2021/06/07 03:01:00;;;;;;;;;;;19.90;50.80;;;;;;500390;237;1426;-45
2021/06/07 03:03:01;;;;;;;;;;;20.10;50.30;;;;;;500347;237;1150;-44
2021/06/07 03:05:03;;;;;;;;;;;20.20;49.90;;;;;;500464;237;1080;-45
2021/06/07 03:07:04;;;;;;;;;;;20.30;49.70;;;;;;500418;237;2120;-45
2021/06/07 03:09:05;;;;;;;;;;;20.40;49.40;;;;;;500441;237;1041;-44
2021/06/07 03:11:07;;;;;;;;;;;20.40;49.20;;;;;;500451;237;1338;-45
2021/06/07 03:13:08;;;;;;;;;;;20.50;49.10;;;;;;500907;237;1028;-44
2021/06/07 03:15:09;;;;;;;;;;;20.60;48.90;;;;;;500457;237;1059;-45
2021/06/07 03:17:10;;;;;;;;;;;20.60;48.70;;;;;;500391;237;1294;-45
2021/06/07 03:19:12;;;;;;;;;;;20.70;48.70;;;;;;500438;237;1037;-44
2021/06/07 03:21:13;;;;;;;;;;;20.70;48.50;;;;;;500868;237;1194;-44
2021/06/07 03:23:14;;;;;;;;;;;20.80;48.40;;;;;;500538;237;1013;-44
2021/06/07 03:25:16;;;;;;;;;;;20.80;48.30;;;;;;500914;237;1090;-44
2021/06/07 03:27:17;;;;;;;;;;;20.90;48.30;;;;;;500609;237;2189;-45
2021/06/07 03:29:18;;;;;;;;;;;20.90;48.10;;;;;;500383;237;1341;-44
2021/06/07 03:31:19;;;;;;;;;;;20.90;48.10;;;;;;500527;237;1136;-45
2021/06/07 03:33:21;;;;;;;;;;;20.90;48.00;;;;;;500428;237;1183;-44
2021/06/07 03:35:22;;;;;;;;;;;21.00;48.00;;;;;;500931;237;1025;-44
2021/06/07 03:37:23;;;;;;;;;;;21.00;47.90;;;;;;500424;237;1170;-44
2021/06/07 03:39:25;;;;;;;;;;;21.10;47.90;;;;;;500457;237;1078;-44
2021/06/07 03:41:26;;;;;;;;;;;21.10;47.80;;;;;;500410;237;1346;-45
2021/06/07 03:43:27;;;;;;;;;;;21.20;47.70;;;;;;500387;237;1115;-45
2021/06/07 03:45:28;;;;;;;;;;;21.20;47.60;;;;;;500881;237;1057;-44
2021/06/07 03:47:30;;;;;;;;;;;21.20;47.50;;;;;;500736;237;2109;-45
2021/06/07 03:49:31;;;;;;;;;;;21.20;47.50;;;;;;500501;237;936;-45
2021/06/07 03:51:33;;;;;;;;;;;21.30;47.40;;;;;;500394;237;1141;-45
2021/06/07 03:53:34;;;;;;;;;;;21.30;47.40;;;;;;500904;237;1056;-45
2021/06/07 03:55:35;;;;;;;;;;;21.30;47.30;;;;;;500841;237;1355;-44
2021/06/07 03:57:37;;;;;;;;;;;21.40;47.20;;;;;;500385;237;1133;-44
2021/06/07 03:59:38;;;;;;;;;;;21.40;47.10;;;;;;500442;237;1037;-44
2021/06/07 04:01:39;;;;;;;;;;;21.40;47.10;;;;;;500383;237;1268;-45
2021/06/07 04:03:41;;;;;;;;;;;21.50;47.10;;;;;;500575;237;1233;-44
2021/06/07 04:05:42;;;;;;;;;;;21.50;47.00;;;;;;500550;237;1045;-45
2021/06/07 04:07:43;;;;;;;;;;;21.50;47.00;;;;;;500393;237;2255;-45
2021/06/07 04:09:44;;;;;;;;;;;21.50;47.00;;;;;;500428;237;1022;-44
2021/06/07 04:11:46;;;;;;;;;;;21.50;46.90;;;;;;500618;237;1148;-44
2021/06/07 04:13:47;;;;;;;;;;;21.50;46.90;;;;;;500866;237;1163;-45
2021/06/07 04:15:48;;;;;;;;;;;21.50;46.90;;;;;;500671;237;1211;-45
2021/06/07 04:17:50;;;;;;;;;;;21.60;46.90;;;;;;500348;238;1242;-45
2021/06/07 04:19:51;;;;;;;;;;;21.60;46.90;;;;;;500557;237;1055;-45
2021/06/07 04:21:52;;;;;;;;;;;21.60;46.90;;;;;;500662;237;1035;-45
2021/06/07 04:23:53;;;;;;;;;;;21.60;46.80;;;;;;500706;237;1058;-45
2021/06/07 04:25:55;;;;;;;;;;;21.60;46.80;;;;;;500335;237;974;-44
2021/06/07 04:27:56;;;;;;;;;;;21.60;46.70;;;;;;500261;237;2186;-45
2021/06/07 04:29:57;;;;;;;;;;;21.60;46.80;;;;;;500307;237;1076;-44
2021/06/07 04:31:59;;;;;;;;;;;21.60;46.70;;;;;;500319;237;1067;-44
2021/06/07 04:34:00;;;;;;;;;;;21.60;46.60;;;;;;500502;237;1150;-45
2021/06/07 04:36:01;;;;;;;;;;;21.70;46.70;;;;;;500261;237;1137;-44
2021/06/07 04:38:02;;;;;;;;;;;21.70;46.70;;;;;;500736;237;1300;-45
2021/06/07 04:40:04;;;;;;;;;;;21.70;46.60;;;;;;500317;237;1058;-44
2021/06/07 04:42:05;;;;;;;;;;;21.70;46.60;;;;;;500781;237;1117;-45
2021/06/07 04:44:06;;;;;;;;;;;21.70;46.60;;;;;;500458;237;1046;-45
2021/06/07 04:46:07;;;;;;;;;;;21.70;46.70;;;;;;500568;237;2176;-45
2021/06/07 04:48:09;;;;;;;;;;;21.80;46.60;;;;;;500464;237;1258;-45
2021/06/07 04:50:11;;;;;;;;;;;21.70;46.60;;;;;;500323;237;1041;-44
2021/06/07 04:52:11;;;;;;;;;;;21.80;46.70;;;;;;500610;237;2345;-44
2021/06/07 04:54:13;;;;;;;;;;;21.80;46.60;;;;;;500601;237;1053;-44
2021/06/07 04:56:14;;;;;;;;;;;21.50;47.20;;;;;;500631;237;1364;-44
2021/06/07 04:58:16;;;;;;;;;;;21.00;48.20;;;;;;500450;237;1061;-44
2021/06/07 05:00:17;;;;;;;;;;;20.50;49.50;;;;;;500288;237;1011;-44
2021/06/07 05:02:18;;;;;;;;;;;20.20;50.50;;;;;;500283;237;1133;-44
2021/06/07 05:04:19;;;;;;;;;;;19.90;51.20;;;;;;500172;237;1149;-44
2021/06/07 05:06:21;;;;;;;;;;;19.70;51.80;;;;;;500394;237;2185;-44
2021/06/07 05:08:22;;;;;;;;;;;19.60;52.20;;;;;;500315;237;1112;-44
2021/06/07 05:10:24;;;;;;;;;;;19.50;52.50;;;;;;500325;237;1168;-44
2021/06/07 05:12:25;;;;;;;;;;;19.40;52.60;;;;;;500569;237;1179;-44
2021/06/07 05:14:26;;;;;;;;;;;19.30;52.80;;;;;;500682;237;1022;-44
2021/06/07 05:16:27;;;;;;;;;;;19.30;52.90;;;;;;500267;237;1350;-44
2021/06/07 05:18:29;;;;;;;;;;;19.30;53.10;;;;;;500101;237;1188;-44
2021/06/07 05:20:30;;;;;;;;;;;19.20;53.20;;;;;;500227;237;1071;-44
2021/06/07 05:22:32;;;;;;;;;;;19.20;53.40;;;;;;500377;237;1100;-44
2021/06/07 05:24:33;;;;;;;;;;;19.10;53.40;;;;;;500351;237;1068;-44
2021/06/07 05:26:34;;;;;;;;;;;19.00;53.60;;;;;;500114;237;2176;-44
2021/06/07 05:28:35;;;;;;;;;;;19.00;53.70;;;;;;500297;237;1191;-44
2021/06/07 05:30:37;;;;;;;;;;;19.00;53.80;;;;;;500148;237;1184;-44
2021/06/07 05:32:38;;;;;;;;;;;19.00;53.70;;;;;;500091;237;1213;-44
2021/06/07 05:34:39;;;;;;;;;;;19.00;53.90;;;;;;500343;237;1217;-44
2021/06/07 05:36:41;;;;;;;;;;;18.90;53.90;;;;;;500156;237;1193;-44
2021/06/07 05:38:42;;;;;;;;;;;18.90;53.90;;;;;;500183;237;1082;-44
2021/06/07 05:40:43;;;;;;;;;;;18.90;54.00;;;;;;500108;237;1083;-44
2021/06/07 05:42:44;;;;;;;;;;;18.80;54.10;;;;;;499926;237;1169;-44
2021/06/07 05:44:46;;;;;;;;;;;18.80;54.20;;;;;;499944;237;1146;-44
2021/06/07 05:46:47;;;;;;;;;;;18.80;54.30;;;;;;499917;237;2176;-44
2021/06/07 05:48:49;;;;;;;;;;;18.80;54.40;;;;;;500057;237;1181;-44
2021/06/07 05:50:50;;;;;;;;;;;18.80;54.40;;;;;;500140;237;1137;-44
2021/06/07 05:52:51;;;;;;;;;;;18.70;54.50;;;;;;499780;237;1191;-44
2021/06/07 05:54:52;;;;;;;;;;;18.70;54.50;;;;;;499786;237;1074;-44
2021/06/07 05:56:55;;;;;;;;;;;18.70;54.60;;;;;;499783;237;1166;-44
2021/06/07 05:58:57;;;;;;;;;;;18.70;54.50;;;;;;500167;237;1133;-44
2021/06/07 06:00:58;;;;;;;;;;;18.70;54.50;;;;;;499997;237;1253;-44
2021/06/07 06:02:59;;;;;;;;;;;18.70;54.60;;;;;;500012;237;1045;-44
2021/06/07 06:05:01;;;;;;;;;;;18.60;54.60;;;;;;499869;237;1221;-44
2021/06/07 06:07:02;;;;;;;;;;;18.60;54.70;;;;;;499835;237;2200;-44
2021/06/07 06:09:03;;;;;;;;;;;18.60;54.70;;;;;;500092;237;1133;-44
2021/06/07 06:11:05;;;;;;;;;;;18.60;54.70;;;;;;499862;237;1096;-44
2021/06/07 06:13:06;;;;;;;;;;;18.50;54.80;;;;;;499879;237;1158;-44
2021/06/07 06:15:07;;;;;;;;;;;18.50;54.80;;;;;;500104;237;1145;-44
2021/06/07 06:17:08;;;;;;;;;;;18.50;54.80;;;;;;500007;237;1123;-44
2021/06/07 06:19:10;;;;;;;;;;;18.50;54.80;;;;;;500043;237;1149;-44
2021/06/07 06:21:11;;;;;;;;;;;18.50;54.90;;;;;;499955;237;1304;-44
2021/06/07 06:23:12;;;;;;;;;;;18.50;54.90;;;;;;500167;237;1088;-44
2021/06/07 06:25:14;;;;;;;;;;;18.50;54.80;;;;;;499920;237;1157;-44
2021/06/07 06:27:15;;;;;;;;;;;18.50;54.90;;;;;;499824;237;2175;-44
2021/06/07 06:29:17;;;;;;;;;;;18.50;54.90;;;;;;499969;237;1119;-44
2021/06/07 06:31:18;;;;;;;;;;;18.40;54.90;;;;;;499819;237;1217;-44
2021/06/07 06:33:19;;;;;;;;;;;18.40;54.90;;;;;;498840;237;1490;-44
2021/06/07 06:35:20;;;;;;;;;;;18.40;55.00;;;;;;499910;237;1208;-44
2021/06/07 06:37:22;;;;;;;;;;;18.40;55.00;;;;;;499959;237;1147;-44
2021/06/07 06:39:23;;;;;;;;;;;18.40;55.10;;;;;;499754;237;1116;-44
2021/06/07 06:41:25;;;;;;;;;;;18.30;55.10;;;;;;499921;237;1175;-44
2021/06/07 06:43:26;;;;;;;;;;;18.30;55.10;;;;;;499826;237;1179;-44
2021/06/07 06:45:27;;;;;;;;;;;18.40;55.10;;;;;;499748;237;1108;-44
2021/06/07 06:47:28;;;;;;;;;;;18.40;55.00;;;;;;499764;237;2180;-44
2021/06/07 06:49:30;;;;;;;;;;;18.60;54.70;;;;;;499824;237;1186;-44
2021/06/07 06:51:31;;;;;;;;;;;19.00;53.50;;;;;;499777;237;1067;-44
2021/06/07 06:53:32;;;;;;;;;;;19.40;52.30;;;;;;498956;237;1342;-44
2021/06/07 06:55:34;;;;;;;;;;;19.60;51.50;;;;;;499595;237;1945;-44
2021/06/07 06:57:35;;;;;;;;;;;19.80;50.90;;;;;;499835;237;1361;-44
2021/06/07 06:59:36;;;;;;;;;;;20.00;50.40;;;;;;499404;237;1053;-44
2021/06/07 07:01:38;;;;;;;;;;;20.20;50.10;;;;;;499579;237;1451;-44
2021/06/07 07:03:39;;;;;;;;;;;20.30;49.80;;;;;;499701;237;1262;-44
2021/06/07 07:05:40;;;;;;;;;;;20.40;49.50;;;;;;499663;237;1179;-44
2021/06/07 07:07:41;;;;;;;;;;;20.40;49.30;;;;;;499624;237;2171;-44
2021/06/07 07:09:43;;;;;;;;;;;20.50;49.10;;;;;;499895;237;1298;-45
2021/06/07 07:11:44;;;;;;;;;;;20.60;49.10;;;;;;500252;237;2206;-44
2021/06/07 07:13:45;;;;;;;;;;;20.60;48.90;;;;;;499789;237;1262;-44
2021/06/07 07:15:46;;;;;;;;;;;20.60;48.80;;;;;;499732;237;1396;-44
2021/06/07 07:17:48;;;;;;;;;;;20.70;48.70;;;;;;499730;237;1175;-44
2021/06/07 07:19:49;;;;;;;;;;;20.80;48.60;;;;;;499744;237;1165;-44
2021/06/07 07:21:50;;;;;;;;;;;20.80;48.60;;;;;;499578;237;1390;-44
2021/06/07 07:23:52;;;;;;;;;;;20.80;48.40;;;;;;499639;237;1139;-44
2021/06/07 07:25:53;;;;;;;;;;;20.90;48.40;;;;;;499486;237;1490;-44
2021/06/07 07:27:54;;;;;;;;;;;20.90;48.30;;;;;;500247;238;2176;-45
2021/06/07 07:29:57;;;;;;;;;;;20.90;48.20;;;;;;499602;237;1206;-45
2021/06/07 07:31:57;;;;;;;;;;;20.90;48.20;;;;;;499600;237;1778;-44
2021/06/07 07:33:58;;;;;;;;;;;21.00;48.10;;;;;;499454;237;1108;-44
2021/06/07 07:35:59;;;;;;;;;;;21.00;48.00;;;;;;499434;237;1341;-45
2021/06/07 07:38:01;;;;;;;;;;;21.00;47.90;;;;;;499747;237;1143;-44
2021/06/07 07:40:02;;;;;;;;;;;21.10;47.90;;;;;;499592;237;1160;-44
2021/06/07 07:42:03;;;;;;;;;;;21.10;47.80;;;;;;499333;237;1147;-44
2021/06/07 07:44:04;;;;;;;;;;;21.10;47.80;;;;;;499304;237;1127;-45
2021/06/07 07:46:06;;;;;;;;;;;21.20;47.80;;;;;;499306;237;1333;-45
2021/06/07 07:48:07;;;;;;;;;;;21.20;47.70;;;;;;499254;237;2128;-44
2021/06/07 07:50:08;;;;;;;;;;;21.20;47.60;;;;;;499378;237;1138;-45
2021/06/07 07:52:09;;;;;;;;;;;21.20;47.60;;;;;;499411;237;1339;-45
2021/06/07 07:54:11;;;;;;;;;;;21.20;47.50;;;;;;499505;237;1086;-44
2021/06/07 07:56:12;;;;;;;;;;;21.30;47.50;;;;;;499547;237;1428;-44
2021/06/07 07:58:13;;;;;;;;;;;21.30;47.40;;;;;;499724;237;1188;-44
2021/06/07 08:00:15;;;;;;;;;;;21.30;47.40;;;;;;499735;237;1158;-45
2021/06/07 08:02:16;;;;;;;;;;;21.30;47.40;;;;;;499562;237;1302;-45
2021/06/07 08:04:17;;;;;;;;;;;21.40;47.40;;;;;;499746;237;1123;-45
2021/06/07 08:06:18;;;;;;;;;;;21.40;47.40;;;;;;499586;237;1099;-44
2021/06/07 08:08:20;;;;;;;;;;;21.40;47.30;;;;;;499552;237;2137;-44
2021/06/07 08:10:21;;;;;;;;;;;21.40;47.20;;;;;;499647;237;1060;-44
2021/06/07 08:12:23;;;;;;;;;;;21.40;47.20;;;;;;499660;237;1226;-45
2021/06/07 08:14:24;;;;;;;;;;;21.50;47.20;;;;;;499718;237;1102;-45
2021/06/07 08:16:25;;;;;;;;;;;21.50;47.20;;;;;;499586;237;1134;-44
2021/06/07 08:18:27;;;;;;;;;;;21.50;47.20;;;;;;499570;237;1062;-44
2021/06/07 08:20:28;;;;;;;;;;;21.40;47.10;;;;;;499583;237;1113;-45
2021/06/07 08:22:29;;;;;;;;;;;21.50;47.10;;;;;;499555;237;1251;-45
2021/06/07 08:24:30;;;;;;;;;;;21.50;47.10;;;;;;499666;237;1162;-44
2021/06/07 08:26:32;;;;;;;;;;;21.50;47.00;;;;;;499516;237;1170;-45
2021/06/07 08:28:33;;;;;;;;;;;21.60;47.00;;;;;;499566;237;2188;-45
2021/06/07 08:30:34;;;;;;;;;;;21.60;47.00;;;;;;499579;237;1128;-45
2021/06/07 08:32:36;;;;;;;;;;;21.60;46.90;;;;;;499647;237;1087;-44
2021/06/07 08:34:37;;;;;;;;;;;21.60;46.90;;;;;;499834;237;1072;-44
2021/06/07 08:36:38;;;;;;;;;;;21.60;46.90;;;;;;499652;237;1206;-45
2021/06/07 08:38:41;;;;;;;;;;;21.60;46.90;;;;;;499609;237;1256;-44
2021/06/07 08:40:42;;;;;;;;;;;21.60;46.90;;;;;;499664;237;1699;-44
2021/06/07 08:42:43;;;;;;;;;;;21.70;46.90;;;;;;499687;238;1110;-44
2021/06/07 08:44:44;;;;;;;;;;;21.70;46.90;;;;;;499665;237;1149;-45
2021/06/07 08:46:45;;;;;;;;;;;21.70;46.80;;;;;;499693;237;1374;-44
2021/06/07 08:48:47;;;;;;;;;;;21.70;46.80;;;;;;499743;237;2136;-44
2021/06/07 08:50:48;;;;;;;;;;;21.80;46.70;;;;;;499359;238;1350;-45
2021/06/07 08:52:49;;;;;;;;;;;21.60;47.00;;;;;;499666;237;1108;-45
2021/06/07 08:54:51;;;;;;;;;;;21.30;47.90;;;;;;499604;237;1144;-45
2021/06/07 08:56:52;;;;;;;;;;;21.00;48.60;;;;;;499614;237;1200;-44
2021/06/07 08:58:53;;;;;;;;;;;20.80;49.10;;;;;;499497;237;1142;-44
2021/06/07 09:00:55;;;;;;;;;;;20.60;49.40;;;;;;499488;237;1385;-44
2021/06/07 09:02:56;;;;;;;;;;;20.60;49.70;;;;;;499299;237;1108;-44
2021/06/07 09:04:57;;;;;;;;;;;20.50;49.90;;;;;;499143;237;1548;-44
2021/06/07 09:06:59;;;;;;;;;;;20.50;49.90;;;;;;499252;237;1237;-44
2021/06/07 09:09:00;;;;;;;;;;;20.50;49.90;;;;;;499594;237;2183;-44
2021/06/07 09:11:01;;;;;;;;;;;20.60;49.90;;;;;;499638;237;1336;-44
2021/06/07 09:13:03;;;;;;;;;;;20.60;49.80;;;;;;499479;237;1234;-44
2021/06/07 09:15:04;;;;;;;;;;;20.60;49.80;;;;;;499486;237;2149;-45
2021/06/07 09:17:05;;;;;;;;;;;20.60;49.80;;;;;;499404;238;1335;-44
2021/06/07 09:19:06;;;;;;;;;;;20.60;49.80;;;;;;499511;238;1118;-44
2021/06/07 09:21:09;;;;;;;;;;;20.50;49.90;;;;;;499371;237;1180;-44
2021/06/07 09:23:09;;;;;;;;;;;20.50;49.90;;;;;;499466;237;2229;-45
2021/06/07 09:25:10;;;;;;;;;;;20.50;50.00;;;;;;499418;237;1165;-44
2021/06/07 09:27:12;;;;;;;;;;;20.50;50.10;;;;;;499649;237;1184;-44
2021/06/07 09:29:14;;;;;;;;;;;20.40;50.20;;;;;;499490;237;2184;-44
2021/06/07 09:31:14;;;;;;;;;;;20.40;50.20;;;;;;499622;237;2046;-44
2021/06/07 09:33:16;;;;;;;;;;;20.40;50.30;;;;;;499559;237;1342;-44
2021/06/07 09:35:17;;;;;;;;;;;20.40;50.30;;;;;;499511;237;1158;-44
2021/06/07 09:37:18;;;;;;;;;;;20.30;50.30;;;;;;499536;237;1216;-44
2021/06/07 09:39:19;;;;;;;;;;;20.30;50.40;;;;;;498706;237;1075;-44
2021/06/07 09:41:21;;;;;;;;;;;20.30;50.40;;;;;;499080;237;1172;-44
2021/06/07 09:43:22;;;;;;;;;;;20.30;50.40;;;;;;499531;237;1071;-44
2021/06/07 09:45:23;;;;;;;;;;;20.30;50.40;;;;;;499571;237;1107;-44
2021/06/07 09:47:25;;;;;;;;;;;20.30;50.50;;;;;;499525;237;1081;-44
2021/06/07 09:49:26;;;;;;;;;;;20.30;50.60;;;;;;499473;237;2187;-44
2021/06/07 09:51:27;;;;;;;;;;;20.30;50.60;;;;;;499524;237;1293;-44
2021/06/07 09:53:28;;;;;;;;;;;20.30;50.60;;;;;;499482;237;1166;-44
2021/06/07 09:55:30;;;;;;;;;;;20.30;50.60;;;;;;499320;237;1182;-44
2021/06/07 09:57:31;;;;;;;;;;;20.20;50.70;;;;;;499453;237;1099;-44
2021/06/07 09:59:33;;;;;;;;;;;20.20;50.70;;;;;;499646;237;1092;-44
2021/06/07 10:01:34;;;;;;;;;;;20.20;50.70;;;;;;499479;237;1147;-44
2021/06/07 10:03:41;;;;;;;;;;;20.20;50.70;;;;;;499613;237;1121;-44
2021/06/07 10:05:38;;;;;;;;;;;20.20;50.70;;;;;;498763;237;1318;-44
2021/06/07 10:07:39;;;;;;;;;;;20.20;50.80;;;;;;499609;237;1216;-44
2021/06/07 10:09:40;;;;;;;;;;;20.20;50.70;;;;;;499520;237;2184;-44
2021/06/07 10:11:42;;;;;;;;;;;20.20;50.80;;;;;;499581;237;1149;-44
2021/06/07 10:13:43;;;;;;;;;;;20.20;50.70;;;;;;499538;237;1085;-44
2021/06/07 10:15:44;;;;;;;;;;;20.20;50.80;;;;;;499586;237;1130;-45
2021/06/07 10:17:45;;;;;;;;;;;20.20;50.80;;;;;;499547;237;1256;-44
2021/06/07 10:19:58;;;;;;;;;;;20.20;50.70;;;;;;499350;237;1166;-44
2021/06/07 10:21:49;;;;;;;;;;;20.20;50.70;;;;;;499165;237;2095;-44
2021/06/07 10:23:50;;;;;;;;;;;20.20;50.70;;;;;;499493;237;1073;-44
2021/06/07 10:25:51;;;;;;;;;;;20.20;50.80;;;;;;499397;237;1345;-44
2021/06/07 10:27:53;;;;;;;;;;;20.20;50.80;;;;;;499358;237;1204;-44
2021/06/07 10:29:54;;;;;;;;;;;20.10;50.90;;;;;;499400;237;2105;-44
2021/06/07 10:31:55;;;;;;;;;;;20.00;51.30;;;;;;499353;237;1096;-44
2021/06/07 10:33:57;;;;;;;;;;;19.90;51.60;;;;;;499604;237;1501;-44
2021/06/07 10:36:00;;;;;;;;;;;19.80;51.90;;;;;;499499;237;1115;-44
2021/06/07 10:38:08;;;;;;;;;;;19.70;52.10;;;;;;499642;237;1295;-44
2021/06/07 10:40:05;;;;;;;;;;;19.70;52.10;;;;;;499575;237;2158;-44
2021/06/07 10:42:06;;;;;;;;;;;19.60;52.20;;;;;;499557;238;1183;-44
2021/06/07 10:44:08;;;;;;;;;;;19.60;52.40;;;;;;499608;237;1145;-44
2021/06/07 10:46:09;;;;;;;;;;;19.50;52.50;;;;;;499573;237;1280;-44
2021/06/07 10:48:10;;;;;;;;;;;19.50;52.60;;;;;;499505;237;2121;-44
2021/06/07 10:50:11;;;;;;;;;;;19.50;52.70;;;;;;499460;237;1184;-44
2021/06/07 10:52:13;;;;;;;;;;;19.40;52.70;;;;;;499401;237;1201;-44
2021/06/07 10:54:14;;;;;;;;;;;19.40;52.80;;;;;;499376;237;1062;-44
2021/06/07 10:58:25;;;;;;;;;;;19.30;53.00;;;;;;490323;234;2646;-45
2021/06/07 11:00:27;;;;;;;;;;;19.30;53.00;;;;;;490512;240;1067;-45
2021/06/07 11:02:28;;;;;;;;;;;19.40;52.90;;;;;;489721;241;1233;-45
2021/06/07 11:04:29;;;;;;;;;;;19.50;52.90;;;;;;489642;242;1147;-45
2021/06/07 11:06:31;;;;;;;;;;;19.40;52.90;;;;;;489080;242;1122;-45
2021/06/07 11:08:32;;;;;;;;;;;19.40;52.90;;;;;;489790;241;2197;-45
2021/06/07 11:10:33;;;;;;;;;;;19.40;52.90;;;;;;489793;242;1459;-45
2021/06/07 11:12:34;;;;;;;;;;;19.40;52.80;;;;;;489889;242;1251;-45
2021/06/07 11:14:36;;;;;;;;;;;19.40;52.80;;;;;;489922;241;1172;-45
2021/06/07 11:16:38;;;;;;;;;;;19.50;52.90;;;;;;489688;242;1274;-45
2021/06/07 11:18:39;;;;;;;;;;;19.50;52.80;;;;;;489676;242;2224;-44
2021/06/07 11:20:40;;;;;;;;;;;19.50;52.80;;;;;;489735;243;1106;-45
2021/06/07 11:22:41;;;;;;;;;;;19.40;52.80;;;;;;489871;241;1056;-45
2021/06/07 11:24:45;;;;;;;;;;;19.40;52.80;;;;;;489841;242;1229;-45
2021/06/07 11:26:44;;;;;;;;;;;19.40;52.90;;;;;;489676;243;2295;-45
2021/06/07 11:28:45;;;;;;;;;;;19.40;52.90;;;;;;489890;242;2201;-45
2021/06/07 11:30:46;;;;;;;;;;;19.40;52.90;;;;;;489627;242;1118;-45
2021/06/07 11:32:48;;;;;;;;;;;19.40;52.90;;;;;;490338;241;1118;-45
2021/06/07 11:34:50;;;;;;;;;;;19.40;52.90;;;;;;489837;241;1246;-45
2021/06/07 11:36:50;;;;;;;;;;;19.30;53.00;;;;;;489905;242;2089;-45
2021/06/07 11:38:52;;;;;;;;;;;19.40;53.10;;;;;;489926;242;1091;-45
2021/06/07 11:40:53;;;;;;;;;;;19.30;53.00;;;;;;490012;241;1339;-45
2021/06/07 11:42:54;;;;;;;;;;;19.30;53.00;;;;;;489913;242;1303;-45
2021/06/07 11:44:57;;;;;;;;;;;19.30;53.00;;;;;;489924;242;1153;-45
2021/06/07 11:46:58;;;;;;;;;;;19.30;53.00;;;;;;490053;242;1226;-45
2021/06/07 11:48:59;;;;;;;;;;;19.30;53.10;;;;;;489760;242;2197;-45
2021/06/07 11:51:00;;;;;;;;;;;19.30;53.10;;;;;;489957;242;1210;-44
2021/06/07 11:53:02;;;;;;;;;;;19.30;53.10;;;;;;490168;242;1095;-45
2021/06/07 11:55:03;;;;;;;;;;;19.30;53.00;;;;;;489731;242;1075;-45
2021/06/07 11:57:04;;;;;;;;;;;19.30;53.10;;;;;;489842;241;1501;-45
2021/06/07 11:59:06;;;;;;;;;;;19.30;53.20;;;;;;489822;242;1098;-44